Callander, Canada
Current Conditions -  °F | °C
As of 3:00 PM on Wednesday 28 Jan 2015 (Local Time) from CYYB Reporting Station
Scattered Clouds Scattered Clouds  
Wind Chill:   Ceiling: Unl
Heat Index: 12°   Visibility: 15mi
Dew Point:   Wind: 5mph
Humidity: 62%   Direction: 180°S
Pressure: 30.19"   Gusts: NA
Location:  46.22°N, 79.36°W
Report Text: CYYB 282000Z 18004KT 15SM SCT260 M11/M17 A3019 RMK CI3 SLP259
Loading
Personal Weather Stations






























Interactive Weather Map New forecast layout! Learn more

10-Day Weather Forecast

Advertisements
Track Severe Weather on mobile